sensor_id;sensor_type;location;lat;lon;timestamp;pressure;altitude;pressure_sealevel;temperature;humidity
64230;BME280;50547;49.498;0.092;2023-03-20T00:01:01;1019.22;;;9.32;78.10
64230;BME280;50547;49.498;0.092;2023-03-20T00:03:30;1019.24;;;9.26;78.45
64230;BME280;50547;49.498;0.092;2023-03-20T00:05:59;1019.18;;;9.37;77.90
64230;BME280;50547;49.498;0.092;2023-03-20T00:08:28;1019.16;;;9.34;77.95
64230;BME280;50547;49.498;0.092;2023-03-20T00:10:57;1019.10;;;9.14;79.06
64230;BME280;50547;49.498;0.092;2023-03-20T00:13:26;1019.12;;;9.10;79.17
64230;BME280;50547;49.498;0.092;2023-03-20T00:15:56;1019.08;;;9.13;78.68
64230;BME280;50547;49.498;0.092;2023-03-20T00:18:25;1019.12;;;9.09;79.00
64230;BME280;50547;49.498;0.092;2023-03-20T00:20:54;1019.22;;;9.18;78.68
64230;BME280;50547;49.498;0.092;2023-03-20T00:23:23;1019.22;;;9.23;78.51
64230;BME280;50547;49.498;0.092;2023-03-20T00:25:53;1019.16;;;9.29;78.31
64230;BME280;50547;49.498;0.092;2023-03-20T00:28:30;1019.14;;;9.23;78.53
64230;BME280;50547;49.498;0.092;2023-03-20T00:31:04;1019.16;;;9.23;78.69
64230;BME280;50547;49.498;0.092;2023-03-20T00:33:33;1019.14;;;9.36;78.01
64230;BME280;50547;49.498;0.092;2023-03-20T00:36:03;1019.12;;;9.24;78.90
64230;BME280;50547;49.498;0.092;2023-03-20T00:38:32;1019.06;;;9.27;78.87
64230;BME280;50547;49.498;0.092;2023-03-20T00:41:02;1019.02;;;9.26;78.88
64230;BME280;50547;49.498;0.092;2023-03-20T00:43:31;1019.00;;;9.36;78.22
64230;BME280;50547;49.498;0.092;2023-03-20T00:46:01;1018.96;;;9.29;78.40
64230;BME280;50547;49.498;0.092;2023-03-20T00:48:30;1019.04;;;9.26;78.38
64230;BME280;50547;49.498;0.092;2023-03-20T00:50:59;1018.90;;;9.12;78.84
64230;BME280;50547;49.498;0.092;2023-03-20T00:53:28;1019.02;;;9.18;78.51
64230;BME280;50547;49.498;0.092;2023-03-20T00:55:57;1018.96;;;9.06;78.79
64230;BME280;50547;49.498;0.092;2023-03-20T00:58:26;1018.96;;;9.06;78.44
64230;BME280;50547;49.498;0.092;2023-03-20T01:00:55;1018.90;;;9.02;78.43
64230;BME280;50547;49.498;0.092;2023-03-20T01:03:26;1018.92;;;9.12;77.86
64230;BME280;50547;49.498;0.092;2023-03-20T01:05:55;1019.02;;;9.24;77.36
64230;BME280;50547;49.498;0.092;2023-03-20T01:08:25;1019.06;;;9.23;77.42
64230;BME280;50547;49.498;0.092;2023-03-20T01:10:55;1019.06;;;9.22;77.41
64230;BME280;50547;49.498;0.092;2023-03-20T01:13:28;1019.06;;;9.35;76.87
64230;BME280;50547;49.498;0.092;2023-03-20T01:15:58;1019.06;;;9.25;77.29
64230;BME280;50547;49.498;0.092;2023-03-20T01:18:27;1019.06;;;9.27;77.11
64230;BME280;50547;49.498;0.092;2023-03-20T01:20:56;1019.04;;;9.34;76.55
64230;BME280;50547;49.498;0.092;2023-03-20T01:23:25;1019.02;;;9.30;76.91
64230;BME280;50547;49.498;0.092;2023-03-20T01:25:54;1019.06;;;9.37;76.61
64230;BME280;50547;49.498;0.092;2023-03-20T01:28:24;1019.02;;;9.40;76.34
64230;BME280;50547;49.498;0.092;2023-03-20T01:30:53;1018.94;;;9.46;76.08
64230;BME280;50547;49.498;0.092;2023-03-20T01:33:23;1018.90;;;9.50;75.88
64230;BME280;50547;49.498;0.092;2023-03-20T01:35:52;1018.90;;;9.44;76.52
64230;BME280;50547;49.498;0.092;2023-03-20T01:38:23;1018.92;;;9.41;76.71
64230;BME280;50547;49.498;0.092;2023-03-20T01:40:55;1018.90;;;9.27;77.14
64230;BME280;50547;49.498;0.092;2023-03-20T01:43:27;1018.87;;;9.23;77.35
64230;BME280;50547;49.498;0.092;2023-03-20T01:46:00;1018.85;;;9.42;76.53
64230;BME280;50547;49.498;0.092;2023-03-20T01:48:56;1018.83;;;9.40;76.76
64230;BME280;50547;49.498;0.092;2023-03-20T01:51:27;1018.75;;;9.37;77.11
64230;BME280;50547;49.498;0.092;2023-03-20T01:53:59;1018.77;;;9.40;77.03
64230;BME280;50547;49.498;0.092;2023-03-20T01:56:32;1018.73;;;9.44;77.15
64230;BME280;50547;49.498;0.092;2023-03-20T01:59:04;1018.79;;;9.39;77.09
64230;BME280;50547;49.498;0.092;2023-03-20T02:01:38;1018.75;;;9.42;77.11
64230;BME280;50547;49.498;0.092;2023-03-20T02:04:08;1018.75;;;9.36;77.24
64230;BME280;50547;49.498;0.092;2023-03-20T02:06:39;1018.69;;;9.37;77.26
64230;BME280;50547;49.498;0.092;2023-03-20T02:09:08;1018.69;;;9.42;77.08
64230;BME280;50547;49.498;0.092;2023-03-20T02:11:38;1018.67;;;9.44;77.34
64230;BME280;50547;49.498;0.092;2023-03-20T02:14:04;1018.57;;;9.42;77.17
64230;BME280;50547;49.498;0.092;2023-03-20T02:16:31;1018.57;;;9.29;77.99
64230;BME280;50547;49.498;0.092;2023-03-20T02:19:00;1018.63;;;9.38;77.34
64230;BME280;50547;49.498;0.092;2023-03-20T02:21:47;1018.59;;;9.30;77.82
64230;BME280;50547;49.498;0.092;2023-03-20T02:24:48;1018.51;;;9.28;77.76
64230;BME280;50547;49.498;0.092;2023-03-20T02:27:23;1018.47;;;9.25;77.66
64230;BME280;50547;49.498;0.092;2023-03-20T02:30:30;1018.42;;;9.27;77.25
64230;BME280;50547;49.498;0.092;2023-03-20T02:33:34;1018.42;;;9.14;77.85
64230;BME280;50547;49.498;0.092;2023-03-20T02:36:25;1018.45;;;9.28;77.46
64230;BME280;50547;49.498;0.092;2023-03-20T02:40:11;1018.43;;;9.27;77.67
64230;BME280;50547;49.498;0.092;2023-03-20T02:42:50;1018.40;;;9.38;77.57
64230;BME280;50547;49.498;0.092;2023-03-20T02:45:26;1018.40;;;9.46;77.52
64230;BME280;50547;49.498;0.092;2023-03-20T02:48:07;1018.42;;;9.47;77.77
64230;BME280;50547;49.498;0.092;2023-03-20T02:50:46;1018.42;;;9.48;77.81
64230;BME280;50547;49.498;0.092;2023-03-20T02:53:26;1018.43;;;9.50;77.61
64230;BME280;50547;49.498;0.092;2023-03-20T02:55:59;1018.42;;;9.50;77.29
64230;BME280;50547;49.498;0.092;2023-03-20T02:58:36;1018.36;;;9.57;77.02
64230;BME280;50547;49.498;0.092;2023-03-20T03:01:10;1018.36;;;9.60;76.96
64230;BME280;50547;49.498;0.092;2023-03-20T03:03:43;1018.25;;;9.53;77.48
64230;BME280;50547;49.498;0.092;2023-03-20T03:06:16;1018.25;;;9.57;77.30
64230;BME280;50547;49.498;0.092;2023-03-20T03:08:51;1018.21;;;9.54;77.76
64230;BME280;50547;49.498;0.092;2023-03-20T03:11:23;1018.25;;;9.57;77.60
64230;BME280;50547;49.498;0.092;2023-03-20T03:13:54;1018.17;;;9.55;77.71
64230;BME280;50547;49.498;0.092;2023-03-20T03:16:28;1018.23;;;9.58;77.43
64230;BME280;50547;49.498;0.092;2023-03-20T03:19:02;1018.25;;;9.57;77.61
64230;BME280;50547;49.498;0.092;2023-03-20T03:21:34;1018.23;;;9.59;77.61
64230;BME280;50547;49.498;0.092;2023-03-20T03:24:05;1018.21;;;9.57;77.74
64230;BME280;50547;49.498;0.092;2023-03-20T03:26:37;1018.19;;;9.53;77.87
64230;BME280;50547;49.498;0.092;2023-03-20T03:29:14;1018.25;;;9.61;77.68
64230;BME280;50547;49.498;0.092;2023-03-20T03:31:44;1018.38;;;9.61;77.77
64230;BME280;50547;49.498;0.092;2023-03-20T03:34:16;1018.25;;;9.62;77.82
64230;BME280;50547;49.498;0.092;2023-03-20T03:36:52;1018.27;;;9.63;77.70
64230;BME280;50547;49.498;0.092;2023-03-20T03:39:30;1018.36;;;9.59;78.14
64230;BME280;50547;49.498;0.092;2023-03-20T03:42:04;1018.25;;;9.63;77.94
64230;BME280;50547;49.498;0.092;2023-03-20T03:44:36;1018.27;;;9.70;77.75
64230;BME280;50547;49.498;0.092;2023-03-20T03:47:11;1018.23;;;9.69;77.94
64230;BME280;50547;49.498;0.092;2023-03-20T03:49:43;1018.27;;;9.69;77.81
64230;BME280;50547;49.498;0.092;2023-03-20T03:52:19;1018.23;;;9.75;77.60
64230;BME280;50547;49.498;0.092;2023-03-20T03:54:52;1018.17;;;9.76;77.84
64230;BME280;50547;49.498;0.092;2023-03-20T03:57:28;1018.25;;;9.98;77.00
64230;BME280;50547;49.498;0.092;2023-03-20T04:00:02;1018.27;;;9.84;78.07
64230;BME280;50547;49.498;0.092;2023-03-20T04:02:33;1018.27;;;9.94;77.89
64230;BME280;50547;49.498;0.092;2023-03-20T04:05:04;1018.13;;;9.78;79.10
64230;BME280;50547;49.498;0.092;2023-03-20T04:07:35;1018.36;;;9.84;78.93
64230;BME280;50547;49.498;0.092;2023-03-20T04:10:06;1018.23;;;9.65;79.74
64230;BME280;50547;49.498;0.092;2023-03-20T04:12:37;1018.25;;;9.57;79.89
64230;BME280;50547;49.498;0.092;2023-03-20T04:15:07;1018.23;;;9.51;79.55
64230;BME280;50547;49.498;0.092;2023-03-20T04:17:37;1018.23;;;9.49;79.69
64230;BME280;50547;49.498;0.092;2023-03-20T04:20:09;1018.19;;;9.55;79.67
64230;BME280;50547;49.498;0.092;2023-03-20T04:22:39;1018.19;;;9.57;79.44
64230;BME280;50547;49.498;0.092;2023-03-20T04:25:14;1018.13;;;9.48;80.04
64230;BME280;50547;49.498;0.092;2023-03-20T04:27:44;1018.15;;;9.38;80.38
64230;BME280;50547;49.498;0.092;2023-03-20T04:30:13;1018.17;;;9.39;80.17
64230;BME280;50547;49.498;0.092;2023-03-20T04:32:42;1018.19;;;9.41;80.31
64230;BME280;50547;49.498;0.092;2023-03-20T04:35:08;1018.15;;;9.45;80.45
64230;BME280;50547;49.498;0.092;2023-03-20T04:37:37;1018.09;;;9.54;80.22
64230;BME280;50547;49.498;0.092;2023-03-20T04:40:08;1018.15;;;9.37;80.43
64230;BME280;50547;49.498;0.092;2023-03-20T04:42:37;1018.09;;;9.33;80.43
64230;BME280;50547;49.498;0.092;2023-03-20T04:45:08;1018.09;;;9.45;80.06
64230;BME280;50547;49.498;0.092;2023-03-20T04:47:37;1018.09;;;9.45;79.99
64230;BME280;50547;49.498;0.092;2023-03-20T04:50:07;1018.11;;;9.49;79.70
64230;BME280;50547;49.498;0.092;2023-03-20T04:52:36;1018.09;;;9.49;79.60
64230;BME280;50547;49.498;0.092;2023-03-20T04:55:06;1018.07;;;9.55;79.33
64230;BME280;50547;49.498;0.092;2023-03-20T04:57:35;1018.15;;;9.51;79.62
64230;BME280;50547;49.498;0.092;2023-03-20T05:00:05;1018.09;;;9.56;80.00
64230;BME280;50547;49.498;0.092;2023-03-20T05:02:35;1018.01;;;9.55;80.28
64230;BME280;50547;49.498;0.092;2023-03-20T05:05:05;1018.05;;;9.54;79.99
64230;BME280;50547;49.498;0.092;2023-03-20T05:07:34;1018.07;;;9.47;80.27
64230;BME280;50547;49.498;0.092;2023-03-20T05:10:04;1018.03;;;9.49;79.64
64230;BME280;50547;49.498;0.092;2023-03-20T05:12:33;1018.03;;;9.48;79.59
64230;BME280;50547;49.498;0.092;2023-03-20T05:15:03;1018.05;;;9.58;79.14
64230;BME280;50547;49.498;0.092;2023-03-20T05:17:32;1017.99;;;9.55;79.34
64230;BME280;50547;49.498;0.092;2023-03-20T05:20:02;1018.03;;;9.56;79.51
64230;BME280;50547;49.498;0.092;2023-03-20T05:22:31;1018.03;;;9.59;78.98
64230;BME280;50547;49.498;0.092;2023-03-20T05:25:00;1018.13;;;9.66;79.19
64230;BME280;50547;49.498;0.092;2023-03-20T05:27:29;1018.09;;;9.70;79.05
64230;BME280;50547;49.498;0.092;2023-03-20T05:29:58;1018.09;;;9.64;79.18
64230;BME280;50547;49.498;0.092;2023-03-20T05:32:27;1018.09;;;9.69;78.81
64230;BME280;50547;49.498;0.092;2023-03-20T05:34:57;1018.07;;;9.71;79.07
64230;BME280;50547;49.498;0.092;2023-03-20T05:37:26;1018.03;;;9.68;79.07
64230;BME280;50547;49.498;0.092;2023-03-20T05:39:55;1018.09;;;9.77;78.56
64230;BME280;50547;49.498;0.092;2023-03-20T05:42:24;1018.09;;;9.83;78.24
64230;BME280;50547;49.498;0.092;2023-03-20T05:44:53;1018.05;;;9.71;78.64
64230;BME280;50547;49.498;0.092;2023-03-20T05:47:23;1018.11;;;9.86;77.84
64230;BME280;50547;49.498;0.092;2023-03-20T05:49:52;1018.07;;;9.98;77.53
64230;BME280;50547;49.498;0.092;2023-03-20T05:52:21;1018.07;;;9.97;77.75
64230;BME280;50547;49.498;0.092;2023-03-20T05:54:50;1018.09;;;9.94;77.94
64230;BME280;50547;49.498;0.092;2023-03-20T05:57:19;1018.13;;;10.03;77.75
64230;BME280;50547;49.498;0.092;2023-03-20T05:59:48;1018.09;;;10.09;77.41
64230;BME280;50547;49.498;0.092;2023-03-20T06:02:17;1018.07;;;10.05;77.79
64230;BME280;50547;49.498;0.092;2023-03-20T06:04:46;1018.13;;;10.02;77.87
64230;BME280;50547;49.498;0.092;2023-03-20T06:07:16;1018.11;;;10.13;77.45
64230;BME280;50547;49.498;0.092;2023-03-20T06:09:45;1018.15;;;10.03;77.90
64230;BME280;50547;49.498;0.092;2023-03-20T06:12:14;1018.19;;;10.09;77.61
64230;BME280;50547;49.498;0.092;2023-03-20T06:14:43;1018.17;;;10.12;77.33
64230;BME280;50547;49.498;0.092;2023-03-20T06:17:12;1018.21;;;10.30;76.27
64230;BME280;50547;49.498;0.092;2023-03-20T06:19:42;1018.23;;;10.34;76.10
64230;BME280;50547;49.498;0.092;2023-03-20T06:22:11;1018.23;;;10.46;75.79
64230;BME280;50547;49.498;0.092;2023-03-20T06:24:40;1018.17;;;10.37;76.26
64230;BME280;50547;49.498;0.092;2023-03-20T06:27:09;1018.23;;;10.38;76.25
64230;BME280;50547;49.498;0.092;2023-03-20T06:29:38;1018.36;;;10.36;76.24
64230;BME280;50547;49.498;0.092;2023-03-20T06:32:07;1018.36;;;10.36;75.97
64230;BME280;50547;49.498;0.092;2023-03-20T06:34:36;1018.25;;;10.41;75.59
64230;BME280;50547;49.498;0.092;2023-03-20T06:37:06;1018.21;;;10.45;75.56
64230;BME280;50547;49.498;0.092;2023-03-20T06:39:35;1018.17;;;10.37;75.70
64230;BME280;50547;49.498;0.092;2023-03-20T06:42:04;1018.15;;;10.42;75.32
64230;BME280;50547;49.498;0.092;2023-03-20T06:44:33;1018.21;;;10.40;75.52
64230;BME280;50547;49.498;0.092;2023-03-20T06:47:02;1018.21;;;10.56;75.14
64230;BME280;50547;49.498;0.092;2023-03-20T06:49:32;1018.19;;;10.65;74.69
64230;BME280;50547;49.498;0.092;2023-03-20T06:52:01;1018.19;;;10.68;74.84
64230;BME280;50547;49.498;0.092;2023-03-20T06:54:30;1018.19;;;10.60;75.11
64230;BME280;50547;49.498;0.092;2023-03-20T06:56:59;1018.23;;;10.44;76.05
64230;BME280;50547;49.498;0.092;2023-03-20T06:59:29;1018.19;;;10.77;74.97
64230;BME280;50547;49.498;0.092;2023-03-20T07:02:03;1018.25;;;10.82;74.69
64230;BME280;50547;49.498;0.092;2023-03-20T07:04:31;1018.27;;;10.82;74.73
64230;BME280;50547;49.498;0.092;2023-03-20T07:07:00;1018.25;;;10.98;74.31
64230;BME280;50547;49.498;0.092;2023-03-20T07:09:29;1018.40;;;11.03;74.18
64230;BME280;50547;49.498;0.092;2023-03-20T07:11:58;1018.40;;;11.15;73.78
64230;BME280;50547;49.498;0.092;2023-03-20T07:14:25;1018.42;;;11.09;74.14
64230;BME280;50547;49.498;0.092;2023-03-20T07:16:55;1018.43;;;11.26;73.68
64230;BME280;50547;49.498;0.092;2023-03-20T07:19:24;1018.43;;;11.19;74.01
64230;BME280;50547;49.498;0.092;2023-03-20T07:21:57;1018.45;;;11.24;73.72
64230;BME280;50547;49.498;0.092;2023-03-20T07:24:28;1018.47;;;11.25;73.70
64230;BME280;50547;49.498;0.092;2023-03-20T07:26:57;1018.45;;;11.14;74.21
64230;BME280;50547;49.498;0.092;2023-03-20T07:29:26;1018.45;;;11.04;74.85
64230;BME280;50547;49.498;0.092;2023-03-20T07:31:55;1018.43;;;11.17;74.24
64230;BME280;50547;49.498;0.092;2023-03-20T07:34:25;1018.43;;;10.91;74.74
64230;BME280;50547;49.498;0.092;2023-03-20T07:36:54;1018.43;;;10.78;75.05
64230;BME280;50547;49.498;0.092;2023-03-20T07:39:22;1018.49;;;10.54;75.31
64230;BME280;50547;49.498;0.092;2023-03-20T07:41:52;1018.49;;;10.48;75.50
64230;BME280;50547;49.498;0.092;2023-03-20T07:44:21;1018.47;;;10.53;74.86
64230;BME280;50547;49.498;0.092;2023-03-20T07:46:50;1018.45;;;10.57;74.38
64230;BME280;50547;49.498;0.092;2023-03-20T07:49:20;1018.47;;;10.50;74.99
64230;BME280;50547;49.498;0.092;2023-03-20T07:51:49;1018.45;;;10.65;74.58
64230;BME280;50547;49.498;0.092;2023-03-20T07:54:19;1018.42;;;10.76;73.88
64230;BME280;50547;49.498;0.092;2023-03-20T07:56:48;1018.42;;;10.77;74.28
64230;BME280;50547;49.498;0.092;2023-03-20T07:59:17;1018.45;;;10.83;74.23
64230;BME280;50547;49.498;0.092;2023-03-20T08:01:49;1018.42;;;10.92;74.09
64230;BME280;50547;49.498;0.092;2023-03-20T08:04:19;1018.43;;;10.99;74.15
64230;BME280;50547;49.498;0.092;2023-03-20T08:06:48;1018.43;;;11.03;74.33
64230;BME280;50547;49.498;0.092;2023-03-20T08:09:18;1018.42;;;11.10;73.81
64230;BME280;50547;49.498;0.092;2023-03-20T08:11:48;1018.43;;;11.26;73.35
64230;BME280;50547;49.498;0.092;2023-03-20T08:14:17;1018.43;;;11.54;72.53
64230;BME280;50547;49.498;0.092;2023-03-20T08:16:46;1018.40;;;11.50;72.49
64230;BME280;50547;49.498;0.092;2023-03-20T08:19:15;1018.40;;;11.34;73.02
64230;BME280;50547;49.498;0.092;2023-03-20T08:21:45;1018.36;;;11.53;72.39
64230;BME280;50547;49.498;0.092;2023-03-20T08:24:14;1018.27;;;11.39;72.64
64230;BME280;50547;49.498;0.092;2023-03-20T08:26:40;1018.23;;;11.55;71.94
64230;BME280;50547;49.498;0.092;2023-03-20T08:29:09;1018.25;;;11.58;71.74
64230;BME280;50547;49.498;0.092;2023-03-20T08:31:39;1018.23;;;11.63;71.44
64230;BME280;50547;49.498;0.092;2023-03-20T08:34:08;1018.23;;;11.61;71.40
64230;BME280;50547;49.498;0.092;2023-03-20T08:36:37;1018.21;;;11.39;71.95
64230;BME280;50547;49.498;0.092;2023-03-20T08:39:07;1018.23;;;11.60;71.33
64230;BME280;50547;49.498;0.092;2023-03-20T08:41:37;1018.23;;;11.61;71.04
64230;BME280;50547;49.498;0.092;2023-03-20T08:44:06;1018.36;;;11.67;70.99
64230;BME280;50547;49.498;0.092;2023-03-20T08:46:35;1018.38;;;11.82;71.46
64230;BME280;50547;49.498;0.092;2023-03-20T08:49:05;1018.38;;;11.65;72.54
64230;BME280;50547;49.498;0.092;2023-03-20T08:51:34;1018.36;;;11.61;73.07
64230;BME280;50547;49.498;0.092;2023-03-20T08:54:03;1018.36;;;11.58;73.16
64230;BME280;50547;49.498;0.092;2023-03-20T08:56:44;1018.38;;;11.34;73.74
64230;BME280;50547;49.498;0.092;2023-03-20T08:59:13;1018.38;;;11.27;74.35
64230;BME280;50547;49.498;0.092;2023-03-20T09:01:42;1018.38;;;11.44;73.71
64230;BME280;50547;49.498;0.092;2023-03-20T09:04:13;1018.38;;;11.59;73.12
64230;BME280;50547;49.498;0.092;2023-03-20T09:06:42;1018.38;;;11.45;72.86
64230;BME280;50547;49.498;0.092;2023-03-20T09:09:11;1018.38;;;11.46;72.85
64230;BME280;50547;49.498;0.092;2023-03-20T09:11:40;1018.42;;;11.39;73.43
64230;BME280;50547;49.498;0.092;2023-03-20T09:14:10;1018.42;;;11.36;73.20
64230;BME280;50547;49.498;0.092;2023-03-20T09:16:39;1018.40;;;11.26;73.21
64230;BME280;50547;49.498;0.092;2023-03-20T09:19:08;1018.43;;;11.38;73.15
64230;BME280;50547;49.498;0.092;2023-03-20T09:21:37;1018.43;;;11.50;72.78
64230;BME280;50547;49.498;0.092;2023-03-20T09:24:07;1018.43;;;11.59;73.18
64230;BME280;50547;49.498;0.092;2023-03-20T09:26:36;1018.25;;;11.63;73.22
64230;BME280;50547;49.498;0.092;2023-03-20T09:29:05;1018.38;;;11.60;72.99
64230;BME280;50547;49.498;0.092;2023-03-20T09:31:34;1018.27;;;11.40;73.62
64230;BME280;50547;49.498;0.092;2023-03-20T09:34:03;1018.36;;;11.32;74.09
64230;BME280;50547;49.498;0.092;2023-03-20T09:36:33;1018.27;;;11.23;74.46
64230;BME280;50547;49.498;0.092;2023-03-20T09:39:02;1018.27;;;11.34;73.87
64230;BME280;50547;49.498;0.092;2023-03-20T09:41:32;1018.43;;;11.34;74.55
64230;BME280;50547;49.498;0.092;2023-03-20T09:44:11;1018.40;;;11.54;73.90
64230;BME280;50547;49.498;0.092;2023-03-20T09:46:53;1018.42;;;11.42;74.23
64230;BME280;50547;49.498;0.092;2023-03-20T09:49:38;1018.49;;;11.66;73.58
64230;BME280;50547;49.498;0.092;2023-03-20T09:52:17;1018.47;;;11.66;73.24
64230;BME280;50547;49.498;0.092;2023-03-20T09:54:48;1018.51;;;11.50;73.93
64230;BME280;50547;49.498;0.092;2023-03-20T09:57:21;1018.45;;;11.43;74.51
64230;BME280;50547;49.498;0.092;2023-03-20T09:59:55;1018.49;;;11.45;75.09
64230;BME280;50547;49.498;0.092;2023-03-20T10:02:35;1018.53;;;11.43;75.12
64230;BME280;50547;49.498;0.092;2023-03-20T10:05:14;1018.53;;;11.37;75.33
64230;BME280;50547;49.498;0.092;2023-03-20T10:07:45;1018.57;;;11.47;74.87
64230;BME280;50547;49.498;0.092;2023-03-20T10:10:15;1018.53;;;11.40;75.26
64230;BME280;50547;49.498;0.092;2023-03-20T10:12:53;1018.57;;;11.49;75.22
64230;BME280;50547;49.498;0.092;2023-03-20T10:15:37;1018.49;;;11.46;75.79
64230;BME280;50547;49.498;0.092;2023-03-20T10:18:16;1018.51;;;11.55;75.51
64230;BME280;50547;49.498;0.092;2023-03-20T10:20:53;1018.51;;;11.79;74.49
64230;BME280;50547;49.498;0.092;2023-03-20T10:23:27;1018.51;;;11.96;74.06
64230;BME280;50547;49.498;0.092;2023-03-20T10:26:05;1018.49;;;12.02;73.89
64230;BME280;50547;49.498;0.092;2023-03-20T10:28:42;1018.53;;;12.03;74.08
64230;BME280;50547;49.498;0.092;2023-03-20T10:31:24;1018.57;;;11.98;74.80
64230;BME280;50547;49.498;0.092;2023-03-20T10:34:05;1018.51;;;11.99;75.02
64230;BME280;50547;49.498;0.092;2023-03-20T10:36:51;1018.53;;;12.15;74.62
64230;BME280;50547;49.498;0.092;2023-03-20T10:39:32;1018.49;;;12.03;75.20
64230;BME280;50547;49.498;0.092;2023-03-20T10:42:13;1018.47;;;12.03;75.25
64230;BME280;50547;49.498;0.092;2023-03-20T10:44:49;1018.47;;;12.09;75.71
64230;BME280;50547;49.498;0.092;2023-03-20T10:47:20;1018.51;;;11.96;76.36
64230;BME280;50547;49.498;0.092;2023-03-20T10:49:54;1018.53;;;11.90;76.51
64230;BME280;50547;49.498;0.092;2023-03-20T10:52:28;1018.57;;;12.08;75.90
64230;BME280;50547;49.498;0.092;2023-03-20T10:55:02;1018.57;;;12.11;76.05
64230;BME280;50547;49.498;0.092;2023-03-20T10:57:35;1018.59;;;12.14;76.03
64230;BME280;50547;49.498;0.092;2023-03-20T11:00:12;1018.61;;;12.21;75.86
64230;BME280;50547;49.498;0.092;2023-03-20T11:02:41;1018.57;;;12.42;75.21
64230;BME280;50547;49.498;0.092;2023-03-20T11:05:22;1018.53;;;12.43;75.53
64230;BME280;50547;49.498;0.092;2023-03-20T11:08:00;1018.47;;;12.77;74.30
64230;BME280;50547;49.498;0.092;2023-03-20T11:10:31;1018.45;;;13.16;73.00
64230;BME280;50547;49.498;0.092;2023-03-20T11:13:13;1018.42;;;13.36;72.49
64230;BME280;50547;49.498;0.092;2023-03-20T11:15:43;1018.38;;;13.82;71.12
64230;BME280;50547;49.498;0.092;2023-03-20T11:18:14;1018.38;;;13.92;70.95
64230;BME280;50547;49.498;0.092;2023-03-20T11:20:48;1018.36;;;14.26;69.79
64230;BME280;50547;49.498;0.092;2023-03-20T11:23:23;1018.25;;;14.55;68.90
64230;BME280;50547;49.498;0.092;2023-03-20T11:25:56;1018.27;;;14.56;68.77
64230;BME280;50547;49.498;0.092;2023-03-20T11:28:31;1018.36;;;14.31;69.49
64230;BME280;50547;49.498;0.092;2023-03-20T11:31:04;1018.38;;;14.20;70.05
64230;BME280;50547;49.498;0.092;2023-03-20T11:33:36;1018.27;;;14.42;69.11
64230;BME280;50547;49.498;0.092;2023-03-20T11:36:18;1018.36;;;14.32;69.26
64230;BME280;50547;49.498;0.092;2023-03-20T11:38:49;1018.38;;;14.49;68.88
64230;BME280;50547;49.498;0.092;2023-03-20T11:41:24;1018.23;;;14.55;68.18
64230;BME280;50547;49.498;0.092;2023-03-20T11:43:54;1018.13;;;14.71;68.05
64230;BME280;50547;49.498;0.092;2023-03-20T11:46:24;1018.07;;;15.11;66.69
64230;BME280;50547;49.498;0.092;2023-03-20T11:49:04;1018.07;;;15.35;66.43
64230;BME280;50547;49.498;0.092;2023-03-20T11:51:45;1018.09;;;15.64;65.31
64230;BME280;50547;49.498;0.092;2023-03-20T11:54:17;1018.13;;;15.99;64.72
64230;BME280;50547;49.498;0.092;2023-03-20T11:56:52;1018.13;;;16.03;64.47
64230;BME280;50547;49.498;0.092;2023-03-20T11:59:53;1018.17;;;16.03;65.24
64230;BME280;50547;49.498;0.092;2023-03-20T12:02:24;1018.19;;;15.95;66.19
64230;BME280;50547;49.498;0.092;2023-03-20T12:04:58;1018.17;;;15.65;67.75
64230;BME280;50547;49.498;0.092;2023-03-20T12:07:28;1018.13;;;15.12;70.29
64230;BME280;50547;49.498;0.092;2023-03-20T12:10:01;1018.07;;;14.72;72.00
64230;BME280;50547;49.498;0.092;2023-03-20T12:12:37;1018.03;;;14.84;71.15
64230;BME280;50547;49.498;0.092;2023-03-20T12:15:15;1018.05;;;14.71;71.33
64230;BME280;50547;49.498;0.092;2023-03-20T12:17:52;1017.97;;;14.71;71.09
64230;BME280;50547;49.498;0.092;2023-03-20T12:20:28;1017.97;;;14.97;70.24
64230;BME280;50547;49.498;0.092;2023-03-20T12:23:09;1017.96;;;15.23;69.01
64230;BME280;50547;49.498;0.092;2023-03-20T12:25:46;1017.97;;;15.51;68.29
64230;BME280;50547;49.498;0.092;2023-03-20T12:28:22;1017.97;;;15.75;67.87
64230;BME280;50547;49.498;0.092;2023-03-20T12:31:00;1017.94;;;16.00;67.20
64230;BME280;50547;49.498;0.092;2023-03-20T12:33:39;1017.90;;;16.03;67.11
64230;BME280;50547;49.498;0.092;2023-03-20T12:36:13;1017.88;;;16.21;66.71
64230;BME280;50547;49.498;0.092;2023-03-20T12:38:43;1017.82;;;16.76;64.76
64230;BME280;50547;49.498;0.092;2023-03-20T12:41:16;1017.80;;;16.75;64.40
64230;BME280;50547;49.498;0.092;2023-03-20T12:44:03;1017.78;;;16.29;66.04
64230;BME280;50547;49.498;0.092;2023-03-20T12:46:43;1017.78;;;15.79;67.96
64230;BME280;50547;49.498;0.092;2023-03-20T12:49:23;1017.78;;;15.82;67.85
64230;BME280;50547;49.498;0.092;2023-03-20T12:52:03;1017.70;;;16.01;67.06
64230;BME280;50547;49.498;0.092;2023-03-20T12:54:46;1017.70;;;16.35;65.90
64230;BME280;50547;49.498;0.092;2023-03-20T12:57:21;1017.60;;;16.31;65.71
64230;BME280;50547;49.498;0.092;2023-03-20T13:00:08;1017.57;;;16.47;65.40
64230;BME280;50547;49.498;0.092;2023-03-20T13:02:49;1017.57;;;16.19;65.93
64230;BME280;50547;49.498;0.092;2023-03-20T13:05:29;1017.53;;;16.15;66.13
64230;BME280;50547;49.498;0.092;2023-03-20T13:08:13;1017.47;;;16.33;65.40
64230;BME280;50547;49.498;0.092;2023-03-20T13:10:51;1017.47;;;16.36;65.15
64230;BME280;50547;49.498;0.092;2023-03-20T13:13:29;1017.39;;;16.41;65.08
64230;BME280;50547;49.498;0.092;2023-03-20T13:16:10;1017.35;;;16.43;65.28
64230;BME280;50547;49.498;0.092;2023-03-20T13:18:51;1017.31;;;16.81;64.12
64230;BME280;50547;49.498;0.092;2023-03-20T13:21:31;1017.27;;;16.39;65.66
64230;BME280;50547;49.498;0.092;2023-03-20T13:24:11;1017.23;;;16.50;65.34
64230;BME280;50547;49.498;0.092;2023-03-20T13:26:49;1017.25;;;16.58;65.35
64230;BME280;50547;49.498;0.092;2023-03-20T13:29:26;1017.23;;;16.46;65.55
64230;BME280;50547;49.498;0.092;2023-03-20T13:32:05;1017.21;;;16.27;66.26
64230;BME280;50547;49.498;0.092;2023-03-20T13:34:51;1017.19;;;15.78;67.44
64230;BME280;50547;49.498;0.092;2023-03-20T13:37:28;1017.15;;;15.62;68.32
64230;BME280;50547;49.498;0.092;2023-03-20T13:40:03;1017.19;;;15.76;67.38
64230;BME280;50547;49.498;0.092;2023-03-20T13:42:37;1017.15;;;15.89;66.84
64230;BME280;50547;49.498;0.092;2023-03-20T13:45:20;1017.19;;;15.60;67.28